sensor_id;sensor_type;location;lat;lon;timestamp;pressure;altitude;pressure_sealevel;temperature;humidity
50430;BME280;36359;41.556;-8.418;2023-05-24T00:02:08;99816.81;;;23.48;42.78
50430;BME280;36359;41.556;-8.418;2023-05-24T00:04:34;99821.84;;;23.51;41.82
50430;BME280;36359;41.556;-8.418;2023-05-24T00:07:00;99816.94;;;23.41;42.58
50430;BME280;36359;41.556;-8.418;2023-05-24T00:09:29;99816.59;;;23.38;42.53
50430;BME280;36359;41.556;-8.418;2023-05-24T00:11:55;99824.19;;;23.42;42.53
50430;BME280;36359;41.556;-8.418;2023-05-24T00:14:20;99818.38;;;23.44;42.62
50430;BME280;36359;41.556;-8.418;2023-05-24T00:16:46;99817.09;;;23.34;42.62
50430;BME280;36359;41.556;-8.418;2023-05-24T00:19:12;99813.25;;;23.35;42.72
50430;BME280;36359;41.556;-8.418;2023-05-24T00:21:45;99816.03;;;23.35;42.63
50430;BME280;36359;41.556;-8.418;2023-05-24T00:24:18;99808.69;;;23.29;43.06
50430;BME280;36359;41.556;-8.418;2023-05-24T00:26:44;99818.78;;;23.35;43.28
50430;BME280;36359;41.556;-8.418;2023-05-24T00:29:09;99817.25;;;23.28;43.24
50430;BME280;36359;41.556;-8.418;2023-05-24T00:31:37;99817.25;;;23.28;45.22
50430;BME280;36359;41.556;-8.418;2023-05-24T00:34:02;99824.00;;;23.20;44.03
50430;BME280;36359;41.556;-8.418;2023-05-24T00:36:28;99826.81;;;22.97;45.04
50430;BME280;36359;41.556;-8.418;2023-05-24T00:38:53;99819.13;;;22.99;44.11
50430;BME280;36359;41.556;-8.418;2023-05-24T00:41:19;99810.00;;;22.98;45.14
50430;BME280;36359;41.556;-8.418;2023-05-24T00:43:44;99809.72;;;23.00;44.45
50430;BME280;36359;41.556;-8.418;2023-05-24T00:48:39;99810.94;;;23.04;44.22
50430;BME280;36359;41.556;-8.418;2023-05-24T00:51:05;99808.53;;;22.96;44.87
50430;BME280;36359;41.556;-8.418;2023-05-24T00:53:31;99807.81;;;22.88;44.79
50430;BME280;36359;41.556;-8.418;2023-05-24T00:55:58;99819.81;;;22.94;44.53
50430;BME280;36359;41.556;-8.418;2023-05-24T00:58:24;99815.75;;;22.85;44.91
50430;BME280;36359;41.556;-8.418;2023-05-24T01:00:59;99811.66;;;22.87;45.89
50430;BME280;36359;41.556;-8.418;2023-05-24T01:03:26;99809.38;;;22.84;45.20
50430;BME280;36359;41.556;-8.418;2023-05-24T01:05:59;99815.75;;;22.73;45.50
50430;BME280;36359;41.556;-8.418;2023-05-24T01:10:58;99819.84;;;22.71;45.55
50430;BME280;36359;41.556;-8.418;2023-05-24T01:18:37;99831.78;;;22.71;45.93
50430;BME280;36359;41.556;-8.418;2023-05-24T01:28:35;99832.75;;;22.65;46.59
50430;BME280;36359;41.556;-8.418;2023-05-24T01:31:03;99822.38;;;22.60;47.61
50430;BME280;36359;41.556;-8.418;2023-05-24T01:33:29;99821.19;;;22.56;46.54
50430;BME280;36359;41.556;-8.418;2023-05-24T01:35:55;99816.72;;;22.43;46.42
50430;BME280;36359;41.556;-8.418;2023-05-24T01:38:20;99822.16;;;22.50;46.36
50430;BME280;36359;41.556;-8.418;2023-05-24T01:40:46;99821.06;;;22.51;47.47
50430;BME280;36359;41.556;-8.418;2023-05-24T01:46:02;99826.59;;;22.39;47.59
50430;BME280;36359;41.556;-8.418;2023-05-24T01:48:33;99828.75;;;22.61;49.35
50430;BME280;36359;41.556;-8.418;2023-05-24T01:51:21;99825.38;;;22.71;46.78
50430;BME280;36359;41.556;-8.418;2023-05-24T01:53:48;99824.91;;;22.85;48.52
50430;BME280;36359;41.556;-8.418;2023-05-24T01:56:15;99831.16;;;22.69;47.08
50430;BME280;36359;41.556;-8.418;2023-05-24T01:58:42;99821.56;;;22.36;46.92
50430;BME280;36359;41.556;-8.418;2023-05-24T02:01:08;99824.94;;;22.38;47.35
50430;BME280;36359;41.556;-8.418;2023-05-24T02:03:34;99825.25;;;22.18;47.38
50430;BME280;36359;41.556;-8.418;2023-05-24T02:06:02;99825.13;;;22.25;47.20
50430;BME280;36359;41.556;-8.418;2023-05-24T02:08:28;99818.13;;;22.11;46.93
50430;BME280;36359;41.556;-8.418;2023-05-24T02:10:53;99822.09;;;22.15;47.37
50430;BME280;36359;41.556;-8.418;2023-05-24T02:13:19;99812.94;;;22.03;47.72
50430;BME280;36359;41.556;-8.418;2023-05-24T02:15:45;99805.25;;;22.05;47.54
50430;BME280;36359;41.556;-8.418;2023-05-24T02:18:12;99805.97;;;22.00;48.00
50430;BME280;36359;41.556;-8.418;2023-05-24T02:20:38;99815.22;;;22.06;47.64
50430;BME280;36359;41.556;-8.418;2023-05-24T02:23:04;99806.09;;;22.05;47.76
50430;BME280;36359;41.556;-8.418;2023-05-24T02:25:30;99807.81;;;22.06;47.35
50430;BME280;36359;41.556;-8.418;2023-05-24T02:27:59;99806.69;;;21.95;47.69
50430;BME280;36359;41.556;-8.418;2023-05-24T02:30:24;99813.31;;;22.06;47.61
50430;BME280;36359;41.556;-8.418;2023-05-24T02:32:50;99807.88;;;21.99;47.75
50430;BME280;36359;41.556;-8.418;2023-05-24T02:35:15;99804.50;;;21.86;48.48
50430;BME280;36359;41.556;-8.418;2023-05-24T02:37:41;99809.44;;;21.95;47.52
50430;BME280;36359;41.556;-8.418;2023-05-24T02:40:07;99812.06;;;21.90;47.93
50430;BME280;36359;41.556;-8.418;2023-05-24T02:42:33;99806.19;;;21.87;48.28
50430;BME280;36359;41.556;-8.418;2023-05-24T02:44:58;99808.25;;;21.91;47.79
50430;BME280;36359;41.556;-8.418;2023-05-24T02:47:24;99817.09;;;21.82;48.30
50430;BME280;36359;41.556;-8.418;2023-05-24T02:49:51;99814.50;;;21.98;47.51
50430;BME280;36359;41.556;-8.418;2023-05-24T02:52:17;99820.38;;;22.02;47.64
50430;BME280;36359;41.556;-8.418;2023-05-24T02:54:46;99818.34;;;21.97;48.23
50430;BME280;36359;41.556;-8.418;2023-05-24T02:57:11;99819.22;;;22.10;47.93
50430;BME280;36359;41.556;-8.418;2023-05-24T02:59:38;99822.66;;;21.93;48.23
50430;BME280;36359;41.556;-8.418;2023-05-24T03:02:04;99820.84;;;21.99;47.89
50430;BME280;36359;41.556;-8.418;2023-05-24T03:04:29;99814.53;;;22.10;48.50
50430;BME280;36359;41.556;-8.418;2023-05-24T03:06:55;99822.94;;;22.04;47.95
50430;BME280;36359;41.556;-8.418;2023-05-24T03:09:21;99814.97;;;21.95;47.92
50430;BME280;36359;41.556;-8.418;2023-05-24T03:11:47;99822.25;;;21.78;48.63
50430;BME280;36359;41.556;-8.418;2023-05-24T03:14:13;99818.69;;;21.89;48.31
50430;BME280;36359;41.556;-8.418;2023-05-24T03:16:41;99815.44;;;21.92;48.00
50430;BME280;36359;41.556;-8.418;2023-05-24T03:19:07;99823.00;;;21.97;48.08
50430;BME280;36359;41.556;-8.418;2023-05-24T03:21:32;99835.75;;;21.98;47.98
50430;BME280;36359;41.556;-8.418;2023-05-24T03:23:58;99828.16;;;21.93;48.33
50430;BME280;36359;41.556;-8.418;2023-05-24T03:26:23;99831.69;;;22.00;48.47
50430;BME280;36359;41.556;-8.418;2023-05-24T03:28:49;99835.28;;;22.01;48.32
50430;BME280;36359;41.556;-8.418;2023-05-24T03:31:19;99829.41;;;21.97;48.60
50430;BME280;36359;41.556;-8.418;2023-05-24T03:33:46;99822.94;;;22.04;49.22
50430;BME280;36359;41.556;-8.418;2023-05-24T03:36:12;99825.44;;;22.05;48.32
50430;BME280;36359;41.556;-8.418;2023-05-24T03:38:37;99828.81;;;22.07;48.12
50430;BME280;36359;41.556;-8.418;2023-05-24T03:41:03;99827.84;;;22.02;48.08
50430;BME280;36359;41.556;-8.418;2023-05-24T03:43:28;99830.97;;;22.05;48.34
50430;BME280;36359;41.556;-8.418;2023-05-24T03:45:56;99836.19;;;21.83;48.51
50430;BME280;36359;41.556;-8.418;2023-05-24T03:48:23;99838.84;;;21.90;48.57
50430;BME280;36359;41.556;-8.418;2023-05-24T03:50:50;99850.28;;;22.05;48.77
50430;BME280;36359;41.556;-8.418;2023-05-24T03:53:16;99840.69;;;22.08;48.85
50430;BME280;36359;41.556;-8.418;2023-05-24T03:55:41;99834.34;;;22.07;48.47
50430;BME280;36359;41.556;-8.418;2023-05-24T03:58:16;99834.81;;;22.04;48.75
50430;BME280;36359;41.556;-8.418;2023-05-24T04:00:43;99836.47;;;22.05;48.86
50430;BME280;36359;41.556;-8.418;2023-05-24T04:03:09;99826.53;;;22.16;49.47
50430;BME280;36359;41.556;-8.418;2023-05-24T04:05:35;99833.78;;;22.17;49.57
50430;BME280;36359;41.556;-8.418;2023-05-24T04:08:00;99835.47;;;22.18;49.64
50430;BME280;36359;41.556;-8.418;2023-05-24T04:10:27;99836.66;;;22.22;50.01
50430;BME280;36359;41.556;-8.418;2023-05-24T04:12:52;99835.97;;;22.38;48.88
50430;BME280;36359;41.556;-8.418;2023-05-24T04:15:18;99831.84;;;22.17;48.86
50430;BME280;36359;41.556;-8.418;2023-05-24T04:17:43;99841.09;;;21.81;49.50
50430;BME280;36359;41.556;-8.418;2023-05-24T04:20:10;99836.53;;;21.75;50.11
50430;BME280;36359;41.556;-8.418;2023-05-24T04:22:36;99835.50;;;21.58;50.19
50430;BME280;36359;41.556;-8.418;2023-05-24T04:25:02;99840.41;;;21.55;50.27
50430;BME280;36359;41.556;-8.418;2023-05-24T04:27:30;99840.25;;;21.32;51.10
50430;BME280;36359;41.556;-8.418;2023-05-24T04:29:57;99836.59;;;21.38;50.78
50430;BME280;36359;41.556;-8.418;2023-05-24T04:32:22;99835.69;;;21.26;51.19
50430;BME280;36359;41.556;-8.418;2023-05-24T04:34:48;99830.41;;;21.24;50.90
50430;BME280;36359;41.556;-8.418;2023-05-24T04:37:14;99836.00;;;21.18;51.17
50430;BME280;36359;41.556;-8.418;2023-05-24T04:39:42;99837.53;;;21.14;51.31
50430;BME280;36359;41.556;-8.418;2023-05-24T04:42:10;99836.75;;;21.25;51.59
50430;BME280;36359;41.556;-8.418;2023-05-24T04:44:36;99837.06;;;21.17;51.33
50430;BME280;36359;41.556;-8.418;2023-05-24T04:47:01;99844.34;;;21.11;51.55
50430;BME280;36359;41.556;-8.418;2023-05-24T04:49:28;99836.78;;;21.06;51.66
50430;BME280;36359;41.556;-8.418;2023-05-24T04:51:55;99841.38;;;21.13;51.50
50430;BME280;36359;41.556;-8.418;2023-05-24T04:54:20;99845.28;;;21.05;51.89
50430;BME280;36359;41.556;-8.418;2023-05-24T04:56:47;99840.59;;;21.05;52.26
50430;BME280;36359;41.556;-8.418;2023-05-24T04:59:12;99851.50;;;21.00;52.18
50430;BME280;36359;41.556;-8.418;2023-05-24T05:01:38;99846.91;;;20.94;52.31
50430;BME280;36359;41.556;-8.418;2023-05-24T05:04:03;99846.03;;;20.94;52.04
50430;BME280;36359;41.556;-8.418;2023-05-24T05:06:29;99849.66;;;20.94;52.50
50430;BME280;36359;41.556;-8.418;2023-05-24T05:08:55;99840.94;;;20.97;52.17
50430;BME280;36359;41.556;-8.418;2023-05-24T05:11:21;99847.28;;;20.98;52.42
50430;BME280;36359;41.556;-8.418;2023-05-24T05:13:46;99848.88;;;20.87;52.61
50430;BME280;36359;41.556;-8.418;2023-05-24T05:16:12;99855.31;;;20.81;52.64
50430;BME280;36359;41.556;-8.418;2023-05-24T05:18:38;99855.09;;;21.01;52.83
50430;BME280;36359;41.556;-8.418;2023-05-24T05:21:03;99859.91;;;21.05;52.48
50430;BME280;36359;41.556;-8.418;2023-05-24T05:23:29;99875.41;;;21.06;52.76
50430;BME280;36359;41.556;-8.418;2023-05-24T05:25:55;99874.16;;;20.84;53.13
50430;BME280;36359;41.556;-8.418;2023-05-24T05:28:20;99874.78;;;20.86;52.97
50430;BME280;36359;41.556;-8.418;2023-05-24T05:30:46;99879.47;;;21.04;52.44
50430;BME280;36359;41.556;-8.418;2023-05-24T05:33:11;99879.16;;;21.12;52.25
50430;BME280;36359;41.556;-8.418;2023-05-24T05:35:37;99881.00;;;21.18;51.92
50430;BME280;36359;41.556;-8.418;2023-05-24T05:38:02;99883.81;;;21.30;52.56
50430;BME280;36359;41.556;-8.418;2023-05-24T05:40:28;99884.25;;;21.08;51.82
50430;BME280;36359;41.556;-8.418;2023-05-24T05:42:53;99881.97;;;21.05;52.04
50430;BME280;36359;41.556;-8.418;2023-05-24T05:45:19;99888.81;;;21.21;52.26
50430;BME280;36359;41.556;-8.418;2023-05-24T05:47:44;99889.19;;;21.25;52.67
50430;BME280;36359;41.556;-8.418;2023-05-24T05:50:10;99895.09;;;21.10;52.55
50430;BME280;36359;41.556;-8.418;2023-05-24T05:52:35;99888.09;;;21.07;52.50
50430;BME280;36359;41.556;-8.418;2023-05-24T05:55:01;99894.72;;;21.06;52.82
50430;BME280;36359;41.556;-8.418;2023-05-24T05:57:26;99897.94;;;21.22;52.96
50430;BME280;36359;41.556;-8.418;2023-05-24T05:59:52;99892.31;;;21.28;52.00
50430;BME280;36359;41.556;-8.418;2023-05-24T06:02:18;99897.75;;;21.17;51.94
50430;BME280;36359;41.556;-8.418;2023-05-24T06:04:44;99893.63;;;21.07;52.65
50430;BME280;36359;41.556;-8.418;2023-05-24T06:07:09;99893.38;;;20.91;53.30
50430;BME280;36359;41.556;-8.418;2023-05-24T06:09:35;99892.88;;;21.00;53.04
50430;BME280;36359;41.556;-8.418;2023-05-24T06:12:00;99899.00;;;21.21;53.31
50430;BME280;36359;41.556;-8.418;2023-05-24T06:14:26;99885.88;;;20.98;52.84
50430;BME280;36359;41.556;-8.418;2023-05-24T06:16:51;99893.91;;;20.81;53.63
50430;BME280;36359;41.556;-8.418;2023-05-24T06:19:18;99899.75;;;21.09;53.18
50430;BME280;36359;41.556;-8.418;2023-05-24T06:21:46;99903.09;;;20.93;53.81
50430;BME280;36359;41.556;-8.418;2023-05-24T06:24:12;99913.84;;;21.01;53.16
50430;BME280;36359;41.556;-8.418;2023-05-24T06:26:39;99921.13;;;21.14;53.26
50430;BME280;36359;41.556;-8.418;2023-05-24T06:29:04;99911.38;;;21.12;53.07
50430;BME280;36359;41.556;-8.418;2023-05-24T06:31:29;99921.00;;;21.09;52.96
50430;BME280;36359;41.556;-8.418;2023-05-24T06:33:55;99909.97;;;21.09;53.07
50430;BME280;36359;41.556;-8.418;2023-05-24T06:36:21;99915.41;;;21.16;53.13
50430;BME280;36359;41.556;-8.418;2023-05-24T06:38:46;99916.78;;;21.25;53.14
50430;BME280;36359;41.556;-8.418;2023-05-24T06:41:12;99928.28;;;21.40;52.72
50430;BME280;36359;41.556;-8.418;2023-05-24T06:43:37;99914.63;;;21.27;52.30
50430;BME280;36359;41.556;-8.418;2023-05-24T06:46:05;99924.31;;;21.36;53.03
50430;BME280;36359;41.556;-8.418;2023-05-24T06:48:30;99923.91;;;21.32;52.61
50430;BME280;36359;41.556;-8.418;2023-05-24T06:50:56;99930.22;;;21.40;52.65
50430;BME280;36359;41.556;-8.418;2023-05-24T06:53:21;99923.66;;;21.34;52.66
50430;BME280;36359;41.556;-8.418;2023-05-24T06:55:47;99931.50;;;21.55;52.18
50430;BME280;36359;41.556;-8.418;2023-05-24T06:58:12;99935.88;;;21.63;52.52
50430;BME280;36359;41.556;-8.418;2023-05-24T07:00:39;99935.19;;;21.68;52.05
50430;BME280;36359;41.556;-8.418;2023-05-24T07:03:05;99937.75;;;21.81;52.31
50430;BME280;36359;41.556;-8.418;2023-05-24T07:05:31;99936.19;;;21.85;51.59
50430;BME280;36359;41.556;-8.418;2023-05-24T07:07:57;99938.94;;;22.04;51.47
50430;BME280;36359;41.556;-8.418;2023-05-24T07:10:23;99935.00;;;22.11;51.48
50430;BME280;36359;41.556;-8.418;2023-05-24T07:12:49;99943.53;;;22.10;51.49
50430;BME280;36359;41.556;-8.418;2023-05-24T07:15:14;99944.84;;;22.07;52.01
50430;BME280;36359;41.556;-8.418;2023-05-24T07:17:40;99952.72;;;21.92;51.07
50430;BME280;36359;41.556;-8.418;2023-05-24T07:20:06;99949.22;;;21.96;51.48
50430;BME280;36359;41.556;-8.418;2023-05-24T07:22:35;99941.81;;;22.09;50.72
50430;BME280;36359;41.556;-8.418;2023-05-24T07:25:01;99943.44;;;22.16;51.42
50430;BME280;36359;41.556;-8.418;2023-05-24T07:27:27;99950.25;;;22.14;51.39
50430;BME280;36359;41.556;-8.418;2023-05-24T07:29:53;99945.94;;;22.36;51.14
50430;BME280;36359;41.556;-8.418;2023-05-24T07:32:19;99958.00;;;22.23;51.75
50430;BME280;36359;41.556;-8.418;2023-05-24T07:34:44;99946.78;;;22.49;51.26
50430;BME280;36359;41.556;-8.418;2023-05-24T07:37:10;99959.38;;;22.33;50.63
50430;BME280;36359;41.556;-8.418;2023-05-24T07:39:36;99961.28;;;22.32;51.25
50430;BME280;36359;41.556;-8.418;2023-05-24T07:42:03;99957.31;;;22.28;51.18
50430;BME280;36359;41.556;-8.418;2023-05-24T07:44:28;99963.78;;;22.22;51.55
50430;BME280;36359;41.556;-8.418;2023-05-24T07:46:54;99961.97;;;21.97;52.08
50430;BME280;36359;41.556;-8.418;2023-05-24T07:49:19;99957.72;;;22.13;51.76
50430;BME280;36359;41.556;-8.418;2023-05-24T07:51:46;99969.66;;;22.26;51.46
50430;BME280;36359;41.556;-8.418;2023-05-24T07:54:12;99961.63;;;22.24;51.02
50430;BME280;36359;41.556;-8.418;2023-05-24T07:56:37;99964.34;;;22.54;51.89
50430;BME280;36359;41.556;-8.418;2023-05-24T07:59:03;99966.66;;;22.81;50.36
50430;BME280;36359;41.556;-8.418;2023-05-24T08:01:31;99963.06;;;22.80;50.72
50430;BME280;36359;41.556;-8.418;2023-05-24T08:03:58;99969.53;;;22.62;49.85
50430;BME280;36359;41.556;-8.418;2023-05-24T08:06:24;99980.47;;;22.69;50.76
50430;BME280;36359;41.556;-8.418;2023-05-24T08:08:49;99981.78;;;22.55;51.26
50430;BME280;36359;41.556;-8.418;2023-05-24T08:11:15;99972.88;;;22.64;50.80
50430;BME280;36359;41.556;-8.418;2023-05-24T08:13:42;99982.56;;;22.74;50.53
50430;BME280;36359;41.556;-8.418;2023-05-24T08:16:07;99986.50;;;22.66;50.39
50430;BME280;36359;41.556;-8.418;2023-05-24T08:18:33;99983.94;;;22.64;50.33
50430;BME280;36359;41.556;-8.418;2023-05-24T08:21:03;99978.75;;;22.98;49.69
50430;BME280;36359;41.556;-8.418;2023-05-24T08:23:29;99980.28;;;23.18;49.63
50430;BME280;36359;41.556;-8.418;2023-05-24T08:25:56;99984.13;;;23.40;49.38
50430;BME280;36359;41.556;-8.418;2023-05-24T08:28:22;99988.81;;;23.51;49.14
50430;BME280;36359;41.556;-8.418;2023-05-24T08:30:50;99988.59;;;23.29;48.63
50430;BME280;36359;41.556;-8.418;2023-05-24T08:33:15;99988.56;;;23.41;48.98
50430;BME280;36359;41.556;-8.418;2023-05-24T08:35:41;99988.47;;;23.48;48.46
50430;BME280;36359;41.556;-8.418;2023-05-24T08:38:07;99988.47;;;23.48;48.21
50430;BME280;36359;41.556;-8.418;2023-05-24T08:40:33;99989.41;;;23.65;48.99
50430;BME280;36359;41.556;-8.418;2023-05-24T08:42:59;99986.47;;;23.95;48.14
50430;BME280;36359;41.556;-8.418;2023-05-24T08:45:25;99982.78;;;23.78;46.10
50430;BME280;36359;41.556;-8.418;2023-05-24T08:47:53;99977.84;;;23.68;46.47
50430;BME280;36359;41.556;-8.418;2023-05-24T08:50:20;99986.53;;;23.72;46.58
50430;BME280;36359;41.556;-8.418;2023-05-24T08:52:45;99987.28;;;23.96;46.55
50430;BME280;36359;41.556;-8.418;2023-05-24T08:55:11;99991.97;;;24.07;45.59
50430;BME280;36359;41.556;-8.418;2023-05-24T08:57:37;99993.28;;;24.05;45.89
50430;BME280;36359;41.556;-8.418;2023-05-24T09:00:06;99996.66;;;24.07;45.39
50430;BME280;36359;41.556;-8.418;2023-05-24T09:02:33;99992.94;;;24.01;44.55
50430;BME280;36359;41.556;-8.418;2023-05-24T09:05:00;100000.88;;;24.09;45.00
50430;BME280;36359;41.556;-8.418;2023-05-24T09:07:26;99990.47;;;24.16;45.59
50430;BME280;36359;41.556;-8.418;2023-05-24T09:09:54;100003.16;;;24.12;45.18
50430;BME280;36359;41.556;-8.418;2023-05-24T09:12:21;99989.09;;;24.31;44.93
50430;BME280;36359;41.556;-8.418;2023-05-24T09:14:47;99988.69;;;24.39;45.34
50430;BME280;36359;41.556;-8.418;2023-05-24T09:17:13;99990.56;;;24.50;44.77
50430;BME280;36359;41.556;-8.418;2023-05-24T09:19:46;99999.69;;;24.62;44.41
50430;BME280;36359;41.556;-8.418;2023-05-24T09:22:12;99997.31;;;24.88;44.14
50430;BME280;36359;41.556;-8.418;2023-05-24T09:24:45;99991.19;;;24.69;44.07
50430;BME280;36359;41.556;-8.418;2023-05-24T09:27:13;99998.19;;;24.88;44.09
50430;BME280;36359;41.556;-8.418;2023-05-24T09:29:39;99997.84;;;25.02;43.57
50430;BME280;36359;41.556;-8.418;2023-05-24T09:32:06;99990.78;;;25.28;43.45
50430;BME280;36359;41.556;-8.418;2023-05-24T09:34:39;99993.88;;;24.98;43.81
50430;BME280;36359;41.556;-8.418;2023-05-24T09:37:04;99992.38;;;24.90;43.67
50430;BME280;36359;41.556;-8.418;2023-05-24T09:39:31;99994.25;;;25.18;43.02
50430;BME280;36359;41.556;-8.418;2023-05-24T09:41:57;99992.53;;;25.17;41.97
50430;BME280;36359;41.556;-8.418;2023-05-24T09:44:23;99999.44;;;25.14;42.68
50430;BME280;36359;41.556;-8.418;2023-05-24T09:46:49;99995.66;;;25.21;42.18
50430;BME280;36359;41.556;-8.418;2023-05-24T09:49:15;99992.53;;;25.34;42.26
50430;BME280;36359;41.556;-8.418;2023-05-24T09:51:40;99988.06;;;25.33;42.71
50430;BME280;36359;41.556;-8.418;2023-05-24T09:54:06;99992.53;;;25.34;41.63
50430;BME280;36359;41.556;-8.418;2023-05-24T09:56:33;99988.66;;;25.01;42.08
50430;BME280;36359;41.556;-8.418;2023-05-24T09:59:09;99991.09;;;24.81;42.31
50430;BME280;36359;41.556;-8.418;2023-05-24T10:01:34;99993.63;;;24.99;42.09
50430;BME280;36359;41.556;-8.418;2023-05-24T10:04:00;99993.38;;;25.18;41.91
50430;BME280;36359;41.556;-8.418;2023-05-24T10:06:30;99997.66;;;25.25;41.96
50430;BME280;36359;41.556;-8.418;2023-05-24T10:09:00;99987.19;;;25.49;40.99
50430;BME280;36359;41.556;-8.418;2023-05-24T10:11:29;99988.91;;;25.33;40.94
50430;BME280;36359;41.556;-8.418;2023-05-24T10:14:04;99987.41;;;25.26;40.53
50430;BME280;36359;41.556;-8.418;2023-05-24T10:16:34;99985.13;;;25.06;41.12
50430;BME280;36359;41.556;-8.418;2023-05-24T10:19:02;99979.56;;;25.40;40.88
50430;BME280;36359;41.556;-8.418;2023-05-24T10:21:30;99988.97;;;25.77;40.87
50430;BME280;36359;41.556;-8.418;2023-05-24T10:23:58;99977.09;;;25.82;40.43
50430;BME280;36359;41.556;-8.418;2023-05-24T10:26:24;99983.72;;;25.81;39.37
50430;BME280;36359;41.556;-8.418;2023-05-24T10:28:51;99979.34;;;25.85;39.07
50430;BME280;36359;41.556;-8.418;2023-05-24T10:31:24;99981.47;;;26.00;39.94
50430;BME280;36359;41.556;-8.418;2023-05-24T10:33:52;99986.09;;;26.16;39.79
50430;BME280;36359;41.556;-8.418;2023-05-24T10:36:20;99980.25;;;26.13;40.28
50430;BME280;36359;41.556;-8.418;2023-05-24T10:38:45;99975.94;;;26.27;40.02
50430;BME280;36359;41.556;-8.418;2023-05-24T10:41:11;99983.13;;;26.23;39.61
50430;BME280;36359;41.556;-8.418;2023-05-24T10:43:40;99977.38;;;26.08;39.44
50430;BME280;36359;41.556;-8.418;2023-05-24T10:46:09;99974.25;;;26.26;39.19
50430;BME280;36359;41.556;-8.418;2023-05-24T10:48:35;99982.03;;;26.24;40.67
50430;BME280;36359;41.556;-8.418;2023-05-24T10:53:46;99979.16;;;26.68;37.99
50430;BME280;36359;41.556;-8.418;2023-05-24T10:56:13;99977.59;;;26.82;37.17
50430;BME280;36359;41.556;-8.418;2023-05-24T10:58:43;99986.63;;;26.40;40.73
50430;BME280;36359;41.556;-8.418;2023-05-24T11:01:23;99982.84;;;26.79;37.97
50430;BME280;36359;41.556;-8.418;2023-05-24T11:03:51;99978.44;;;26.83;39.59
50430;BME280;36359;41.556;-8.418;2023-05-24T11:06:17;99974.72;;;27.04;39.10
50430;BME280;36359;41.556;-8.418;2023-05-24T11:08:43;99976.31;;;27.00;36.68
50430;BME280;36359;41.556;-8.418;2023-05-24T11:11:12;99980.63;;;27.13;37.09
50430;BME280;36359;41.556;-8.418;2023-05-24T11:13:40;99970.50;;;27.02;38.64
50430;BME280;36359;41.556;-8.418;2023-05-24T11:16:07;99965.09;;;27.22;36.76
50430;BME280;36359;41.556;-8.418;2023-05-24T11:18:35;99960.66;;;27.26;38.39
50430;BME280;36359;41.556;-8.418;2023-05-24T11:21:05;99962.25;;;27.59;36.34
50430;BME280;36359;41.556;-8.418;2023-05-24T11:23:32;99956.28;;;27.40;38.51
50430;BME280;36359;41.556;-8.418;2023-05-24T11:25:57;99948.78;;;27.36;38.00
50430;BME280;36359;41.556;-8.418;2023-05-24T11:28:23;99946.78;;;27.84;35.11
50430;BME280;36359;41.556;-8.418;2023-05-24T11:30:49;99951.84;;;27.97;35.97
50430;BME280;36359;41.556;-8.418;2023-05-24T11:33:18;99957.78;;;28.31;35.28
50430;BME280;36359;41.556;-8.418;2023-05-24T11:35:45;99952.53;;;28.66;34.54
50430;BME280;36359;41.556;-8.418;2023-05-24T11:38:11;99943.38;;;27.77;36.06
50430;BME280;36359;41.556;-8.418;2023-05-24T11:40:43;99953.25;;;27.05;36.67
50430;BME280;36359;41.556;-8.418;2023-05-24T11:43:10;99948.09;;;26.81;37.83
50430;BME280;36359;41.556;-8.418;2023-05-24T11:45:36;99943.84;;;27.11;38.31
50430;BME280;36359;41.556;-8.418;2023-05-24T11:48:03;99953.47;;;27.35;38.53
50430;BME280;36359;41.556;-8.418;2023-05-24T11:50:30;99931.91;;;27.63;38.81
50430;BME280;36359;41.556;-8.418;2023-05-24T11:53:00;99927.84;;;27.86;37.64
50430;BME280;36359;41.556;-8.418;2023-05-24T11:55:26;99924.78;;;27.30;38.98
50430;BME280;36359;41.556;-8.418;2023-05-24T11:57:53;99927.25;;;27.21;38.06
50430;BME280;36359;41.556;-8.418;2023-05-24T12:00:25;99926.56;;;27.09;39.20
50430;BME280;36359;41.556;-8.418;2023-05-24T12:02:51;99927.41;;;26.72;38.64
50430;BME280;36359;41.556;-8.418;2023-05-24T12:05:17;99925.06;;;26.54;39.42
50430;BME280;36359;41.556;-8.418;2023-05-24T12:10:15;99920.69;;;26.36;40.52
50430;BME280;36359;41.556;-8.418;2023-05-24T12:12:44;99915.03;;;26.25;40.47
50430;BME280;36359;41.556;-8.418;2023-05-24T12:15:09;99911.19;;;26.32;40.69
50430;BME280;36359;41.556;-8.418;2023-05-24T12:17:35;99918.56;;;26.48;39.94
50430;BME280;36359;41.556;-8.418;2023-05-24T12:20:01;99912.66;;;26.39;40.09
50430;BME280;36359;41.556;-8.418;2023-05-24T12:22:27;99909.94;;;26.44;39.85
50430;BME280;36359;41.556;-8.418;2023-05-24T12:24:55;99907.09;;;26.39;40.68
50430;BME280;36359;41.556;-8.418;2023-05-24T12:27:26;99897.03;;;26.33;40.97
50430;BME280;36359;41.556;-8.418;2023-05-24T12:29:51;99901.84;;;26.43;39.90
50430;BME280;36359;41.556;-8.418;2023-05-24T12:32:17;99896.75;;;26.67;40.00
50430;BME280;36359;41.556;-8.418;2023-05-24T12:34:43;99891.69;;;27.38;38.51
50430;BME280;36359;41.556;-8.418;2023-05-24T12:37:09;99893.53;;;27.23;39.14
50430;BME280;36359;41.556;-8.418;2023-05-24T12:39:36;99893.25;;;27.19;38.41
50430;BME280;36359;41.556;-8.418;2023-05-24T12:42:02;99891.00;;;27.16;38.53
50430;BME280;36359;41.556;-8.418;2023-05-24T12:44:33;99888.13;;;27.06;38.46
50430;BME280;36359;41.556;-8.418;2023-05-24T12:47:00;99894.44;;;26.91;39.11
50430;BME280;36359;41.556;-8.418;2023-05-24T12:49:26;99889.59;;;26.76;39.09
50430;BME280;36359;41.556;-8.418;2023-05-24T12:51:52;99884.56;;;26.73;39.83
50430;BME280;36359;41.556;-8.418;2023-05-24T12:54:18;99878.25;;;26.83;39.05
50430;BME280;36359;41.556;-8.418;2023-05-24T12:56:44;99873.47;;;26.78;38.47
50430;BME280;36359;41.556;-8.418;2023-05-24T12:59:10;99885.34;;;26.63;39.54
50430;BME280;36359;41.556;-8.418;2023-05-24T13:01:36;99878.25;;;26.83;37.86
50430;BME280;36359;41.556;-8.418;2023-05-24T13:04:01;99880.06;;;26.67;38.82
50430;BME280;36359;41.556;-8.418;2023-05-24T13:06:27;99872.34;;;26.79;39.48
50430;BME280;36359;41.556;-8.418;2023-05-24T13:08:52;99872.78;;;26.61;38.96
50430;BME280;36359;41.556;-8.418;2023-05-24T13:11:18;99882.63;;;26.73;39.22
50430;BME280;36359;41.556;-8.418;2023-05-24T13:13:44;99872.41;;;26.84;39.23